sensor_id;sensor_type;location;lat;lon;timestamp;pressure;altitude;pressure_sealevel;temperature;humidity
55916;BME280;41826;53.246;-6.670;2022-09-23T00:00:29;100927.22;;;10.61;100.00
55916;BME280;41826;53.246;-6.670;2022-09-23T00:02:54;100930.66;;;10.71;100.00
55916;BME280;41826;53.246;-6.670;2022-09-23T00:05:20;100910.19;;;10.55;100.00
55916;BME280;41826;53.246;-6.670;2022-09-23T00:07:45;100915.03;;;10.50;100.00
55916;BME280;41826;53.246;-6.670;2022-09-23T00:10:11;100914.78;;;10.53;100.00
55916;BME280;41826;53.246;-6.670;2022-09-23T00:12:36;100912.53;;;10.29;100.00
55916;BME280;41826;53.246;-6.670;2022-09-23T00:15:03;100910.88;;;10.38;100.00
55916;BME280;41826;53.246;-6.670;2022-09-23T00:17:29;100910.06;;;10.57;100.00
55916;BME280;41826;53.246;-6.670;2022-09-23T00:19:55;100908.75;;;10.22;100.00
55916;BME280;41826;53.246;-6.670;2022-09-23T00:22:20;100918.75;;;10.28;100.00
55916;BME280;41826;53.246;-6.670;2022-09-23T00:24:46;100913.19;;;10.22;100.00
55916;BME280;41826;53.246;-6.670;2022-09-23T00:27:11;100912.78;;;10.26;100.00
55916;BME280;41826;53.246;-6.670;2022-09-23T00:29:37;100913.44;;;10.09;100.00
55916;BME280;41826;53.246;-6.670;2022-09-23T00:32:03;100919.50;;;10.09;100.00
55916;BME280;41826;53.246;-6.670;2022-09-23T00:34:28;100914.41;;;10.08;100.00
55916;BME280;41826;53.246;-6.670;2022-09-23T00:36:54;100925.16;;;10.05;100.00
55916;BME280;41826;53.246;-6.670;2022-09-23T00:39:21;100918.53;;;10.01;100.00
55916;BME280;41826;53.246;-6.670;2022-09-23T00:41:47;100923.19;;;9.97;100.00
55916;BME280;41826;53.246;-6.670;2022-09-23T00:44:39;100921.41;;;9.88;100.00
55916;BME280;41826;53.246;-6.670;2022-09-23T00:47:57;100918.16;;;9.74;100.00
55916;BME280;41826;53.246;-6.670;2022-09-23T00:50:05;100926.00;;;9.65;100.00
55916;BME280;41826;53.246;-6.670;2022-09-23T00:52:34;100925.66;;;9.48;100.00
55916;BME280;41826;53.246;-6.670;2022-09-23T00:55:08;100928.47;;;9.36;100.00
55916;BME280;41826;53.246;-6.670;2022-09-23T00:57:35;100930.78;;;9.08;100.00
55916;BME280;41826;53.246;-6.670;2022-09-23T01:00:04;100930.78;;;9.29;100.00
55916;BME280;41826;53.246;-6.670;2022-09-23T01:02:30;100932.63;;;9.38;100.00
55916;BME280;41826;53.246;-6.670;2022-09-23T01:04:57;100927.16;;;8.99;100.00
55916;BME280;41826;53.246;-6.670;2022-09-23T01:07:22;100934.50;;;9.05;100.00
55916;BME280;41826;53.246;-6.670;2022-09-23T01:09:48;100938.09;;;9.04;100.00
55916;BME280;41826;53.246;-6.670;2022-09-23T01:37:45;100953.53;;;8.54;100.00
55916;BME280;41826;53.246;-6.670;2022-09-23T01:40:29;100961.84;;;8.59;100.00
55916;BME280;41826;53.246;-6.670;2022-09-23T01:43:08;100962.41;;;8.63;100.00
55916;BME280;41826;53.246;-6.670;2022-09-23T01:45:46;100961.13;;;8.57;100.00
55916;BME280;41826;53.246;-6.670;2022-09-23T01:48:37;100957.56;;;8.58;100.00
55916;BME280;41826;53.246;-6.670;2022-09-23T01:51:16;100957.78;;;8.66;100.00
55916;BME280;41826;53.246;-6.670;2022-09-23T01:56:16;100954.53;;;8.95;100.00
55916;BME280;41826;53.246;-6.670;2022-09-23T01:58:58;100956.19;;;8.96;100.00
55916;BME280;41826;53.246;-6.670;2022-09-23T02:04:31;100942.81;;;9.10;100.00
55916;BME280;41826;53.246;-6.670;2022-09-23T02:07:04;100946.13;;;9.13;100.00
55916;BME280;41826;53.246;-6.670;2022-09-23T02:09:36;100937.03;;;9.38;100.00
55916;BME280;41826;53.246;-6.670;2022-09-23T02:12:07;100938.34;;;9.22;100.00
55916;BME280;41826;53.246;-6.670;2022-09-23T02:14:52;100929.78;;;9.20;100.00
55916;BME280;41826;53.246;-6.670;2022-09-23T02:17:29;100927.78;;;9.13;100.00
55916;BME280;41826;53.246;-6.670;2022-09-23T02:20:03;100929.56;;;8.91;100.00
55916;BME280;41826;53.246;-6.670;2022-09-23T02:22:35;100924.78;;;8.96;100.00
55916;BME280;41826;53.246;-6.670;2022-09-23T02:25:05;100928.09;;;8.98;100.00
55916;BME280;41826;53.246;-6.670;2022-09-23T02:27:46;100924.84;;;8.85;100.00
55916;BME280;41826;53.246;-6.670;2022-09-23T02:30:19;100926.75;;;8.83;100.00
55916;BME280;41826;53.246;-6.670;2022-09-23T02:32:51;100912.69;;;9.26;100.00
55916;BME280;41826;53.246;-6.670;2022-09-23T02:35:32;100917.56;;;9.30;100.00
55916;BME280;41826;53.246;-6.670;2022-09-23T02:38:19;100909.72;;;9.09;100.00
55916;BME280;41826;53.246;-6.670;2022-09-23T02:40:57;100901.16;;;9.07;100.00
55916;BME280;41826;53.246;-6.670;2022-09-23T02:43:36;100907.94;;;9.10;100.00
55916;BME280;41826;53.246;-6.670;2022-09-23T02:46:04;100907.59;;;9.03;100.00
55916;BME280;41826;53.246;-6.670;2022-09-23T02:48:43;100914.38;;;8.85;100.00
55916;BME280;41826;53.246;-6.670;2022-09-23T02:51:11;100906.72;;;8.93;100.00
55916;BME280;41826;53.246;-6.670;2022-09-23T02:53:37;100914.13;;;8.88;100.00
55916;BME280;41826;53.246;-6.670;2022-09-23T02:56:17;100916.34;;;8.72;100.00
55916;BME280;41826;53.246;-6.670;2022-09-23T02:58:45;100910.41;;;8.70;100.00
55916;BME280;41826;53.246;-6.670;2022-09-23T03:04:00;100926.69;;;8.73;100.00
55916;BME280;41826;53.246;-6.670;2022-09-23T03:09:25;100926.91;;;8.49;100.00
55916;BME280;41826;53.246;-6.670;2022-09-23T03:12:02;100920.50;;;8.31;100.00
55916;BME280;41826;53.246;-6.670;2022-09-23T03:14:42;100924.66;;;8.33;100.00
55916;BME280;41826;53.246;-6.670;2022-09-23T03:17:19;100923.16;;;8.19;100.00
55916;BME280;41826;53.246;-6.670;2022-09-23T03:20:03;100924.00;;;8.09;100.00
55916;BME280;41826;53.246;-6.670;2022-09-23T03:22:38;100920.78;;;8.05;100.00
55916;BME280;41826;53.246;-6.670;2022-09-23T03:25:20;100920.22;;;8.01;100.00
55916;BME280;41826;53.246;-6.670;2022-09-23T03:27:48;100923.53;;;8.03;100.00
55916;BME280;41826;53.246;-6.670;2022-09-23T03:30:15;100931.03;;;7.97;100.00
55916;BME280;41826;53.246;-6.670;2022-09-23T03:32:43;100928.75;;;7.92;100.00
55916;BME280;41826;53.246;-6.670;2022-09-23T03:35:10;100923.78;;;7.89;100.00
55916;BME280;41826;53.246;-6.670;2022-09-23T03:37:40;100926.88;;;7.94;100.00
55916;BME280;41826;53.246;-6.670;2022-09-23T03:42:43;100937.94;;;7.75;100.00
55916;BME280;41826;53.246;-6.670;2022-09-23T03:45:15;100931.75;;;7.88;100.00
55916;BME280;41826;53.246;-6.670;2022-09-23T03:47:43;100935.19;;;7.99;100.00
55916;BME280;41826;53.246;-6.670;2022-09-23T03:50:08;100938.00;;;8.08;100.00
55916;BME280;41826;53.246;-6.670;2022-09-23T03:52:34;100936.97;;;8.10;100.00
55916;BME280;41826;53.246;-6.670;2022-09-23T03:54:59;100940.00;;;8.27;100.00
55916;BME280;41826;53.246;-6.670;2022-09-23T03:57:25;100939.84;;;8.51;100.00
55916;BME280;41826;53.246;-6.670;2022-09-23T03:59:51;100931.50;;;8.57;100.00
55916;BME280;41826;53.246;-6.670;2022-09-23T04:02:18;100927.28;;;8.33;100.00
55916;BME280;41826;53.246;-6.670;2022-09-23T04:04:44;100918.72;;;8.31;100.00
55916;BME280;41826;53.246;-6.670;2022-09-23T04:07:10;100917.91;;;8.19;100.00
55916;BME280;41826;53.246;-6.670;2022-09-23T04:09:36;100919.69;;;8.19;100.00
55916;BME280;41826;53.246;-6.670;2022-09-23T04:12:02;100925.53;;;8.11;100.00
55916;BME280;41826;53.246;-6.670;2022-09-23T04:14:28;100929.94;;;8.11;100.00
55916;BME280;41826;53.246;-6.670;2022-09-23T04:16:54;100921.38;;;8.09;100.00
55916;BME280;41826;53.246;-6.670;2022-09-23T04:19:20;100924.09;;;8.18;100.00
55916;BME280;41826;53.246;-6.670;2022-09-23T04:21:46;100917.50;;;8.35;100.00
55916;BME280;41826;53.246;-6.670;2022-09-23T04:24:11;100919.66;;;8.30;100.00
55916;BME280;41826;53.246;-6.670;2022-09-23T04:26:38;100921.34;;;8.31;100.00
55916;BME280;41826;53.246;-6.670;2022-09-23T04:29:04;100921.19;;;8.33;100.00
55916;BME280;41826;53.246;-6.670;2022-09-23T04:31:31;100920.31;;;8.11;100.00
55916;BME280;41826;53.246;-6.670;2022-09-23T04:33:57;100931.50;;;8.02;100.00
55916;BME280;41826;53.246;-6.670;2022-09-23T04:36:22;100929.63;;;7.93;100.00
55916;BME280;41826;53.246;-6.670;2022-09-23T04:38:48;100929.72;;;7.91;100.00
55916;BME280;41826;53.246;-6.670;2022-09-23T04:41:15;100926.03;;;7.94;100.00
55916;BME280;41826;53.246;-6.670;2022-09-23T04:43:40;100932.94;;;7.84;100.00
55916;BME280;41826;53.246;-6.670;2022-09-23T04:46:08;100935.81;;;7.80;100.00
55916;BME280;41826;53.246;-6.670;2022-09-23T04:48:36;100933.44;;;7.77;100.00
55916;BME280;41826;53.246;-6.670;2022-09-23T04:51:12;100936.59;;;7.92;100.00
55916;BME280;41826;53.246;-6.670;2022-09-23T04:53:40;100939.81;;;8.07;100.00
55916;BME280;41826;53.246;-6.670;2022-09-23T04:56:11;100944.22;;;8.07;100.00
55916;BME280;41826;53.246;-6.670;2022-09-23T04:58:38;100938.97;;;8.07;100.00
55916;BME280;41826;53.246;-6.670;2022-09-23T05:01:16;100935.53;;;7.95;100.00
55916;BME280;41826;53.246;-6.670;2022-09-23T05:03:43;100933.44;;;7.77;100.00
55916;BME280;41826;53.246;-6.670;2022-09-23T05:06:10;100941.59;;;7.84;100.00
55916;BME280;41826;53.246;-6.670;2022-09-23T05:08:38;100949.81;;;7.68;100.00
55916;BME280;41826;53.246;-6.670;2022-09-23T05:11:04;100949.22;;;7.65;100.00
55916;BME280;41826;53.246;-6.670;2022-09-23T05:13:30;100954.22;;;7.68;100.00
55916;BME280;41826;53.246;-6.670;2022-09-23T05:16:01;100953.97;;;7.71;100.00
55916;BME280;41826;53.246;-6.670;2022-09-23T05:18:30;100952.66;;;7.76;100.00
55916;BME280;41826;53.246;-6.670;2022-09-23T05:20:56;100948.25;;;7.99;100.00
55916;BME280;41826;53.246;-6.670;2022-09-23T05:23:22;100945.03;;;8.18;100.00
55916;BME280;41826;53.246;-6.670;2022-09-23T05:25:48;100941.69;;;8.05;100.00
55916;BME280;41826;53.246;-6.670;2022-09-23T05:28:19;100945.97;;;8.29;100.00
55916;BME280;41826;53.246;-6.670;2022-09-23T05:30:45;100930.41;;;8.16;100.00
55916;BME280;41826;53.246;-6.670;2022-09-23T05:33:11;100938.28;;;7.93;100.00
55916;BME280;41826;53.246;-6.670;2022-09-23T05:35:36;100945.91;;;7.85;100.00
55916;BME280;41826;53.246;-6.670;2022-09-23T05:38:02;100941.25;;;7.89;100.00
55916;BME280;41826;53.246;-6.670;2022-09-23T05:40:27;100939.22;;;7.92;100.00
55916;BME280;41826;53.246;-6.670;2022-09-23T05:42:52;100947.31;;;7.89;100.00
55916;BME280;41826;53.246;-6.670;2022-09-23T05:45:18;100940.06;;;7.93;100.00
55916;BME280;41826;53.246;-6.670;2022-09-23T05:47:43;100953.84;;;7.95;100.00
55916;BME280;41826;53.246;-6.670;2022-09-23T05:50:09;100941.22;;;8.00;100.00
55916;BME280;41826;53.246;-6.670;2022-09-23T05:52:35;100945.06;;;7.96;100.00
55916;BME280;41826;53.246;-6.670;2022-09-23T05:55:00;100947.06;;;7.92;100.00
55916;BME280;41826;53.246;-6.670;2022-09-23T05:57:26;100948.03;;;7.91;100.00
55916;BME280;41826;53.246;-6.670;2022-09-23T05:59:52;100952.78;;;7.86;100.00
55916;BME280;41826;53.246;-6.670;2022-09-23T06:02:17;100948.63;;;7.84;100.00
55916;BME280;41826;53.246;-6.670;2022-09-23T06:04:42;100948.16;;;7.78;100.00
55916;BME280;41826;53.246;-6.670;2022-09-23T06:07:08;100950.75;;;7.78;100.00
55916;BME280;41826;53.246;-6.670;2022-09-23T06:09:34;100960.25;;;7.79;100.00
55916;BME280;41826;53.246;-6.670;2022-09-23T06:11:59;100968.97;;;7.80;100.00
55916;BME280;41826;53.246;-6.670;2022-09-23T06:14:25;100964.78;;;7.77;100.00
55916;BME280;41826;53.246;-6.670;2022-09-23T06:16:50;100977.84;;;7.89;100.00
55916;BME280;41826;53.246;-6.670;2022-09-23T06:19:15;100965.75;;;7.88;100.00
55916;BME280;41826;53.246;-6.670;2022-09-23T06:21:41;100980.84;;;7.95;100.00
55916;BME280;41826;53.246;-6.670;2022-09-23T06:24:07;100975.69;;;8.16;100.00
55916;BME280;41826;53.246;-6.670;2022-09-23T06:26:34;100984.84;;;8.22;100.00
55916;BME280;41826;53.246;-6.670;2022-09-23T06:29:01;100977.59;;;8.25;100.00
55916;BME280;41826;53.246;-6.670;2022-09-23T06:31:27;100976.06;;;8.23;100.00
55916;BME280;41826;53.246;-6.670;2022-09-23T06:33:53;100979.84;;;8.41;100.00
55916;BME280;41826;53.246;-6.670;2022-09-23T06:36:18;100973.16;;;8.37;100.00
55916;BME280;41826;53.246;-6.670;2022-09-23T06:38:43;100976.13;;;8.33;100.00
55916;BME280;41826;53.246;-6.670;2022-09-23T06:41:10;100981.59;;;8.30;100.00
55916;BME280;41826;53.246;-6.670;2022-09-23T06:43:36;100983.06;;;8.11;100.00
55916;BME280;41826;53.246;-6.670;2022-09-23T06:46:03;100998.25;;;8.17;100.00
55916;BME280;41826;53.246;-6.670;2022-09-23T06:48:30;100998.06;;;8.20;100.00
55916;BME280;41826;53.246;-6.670;2022-09-23T06:51:01;100995.19;;;8.23;100.00
55916;BME280;41826;53.246;-6.670;2022-09-23T06:53:27;100994.47;;;8.21;100.00
55916;BME280;41826;53.246;-6.670;2022-09-23T06:56:06;101004.69;;;8.24;100.00
55916;BME280;41826;53.246;-6.670;2022-09-23T06:58:34;101002.19;;;8.45;100.00
55916;BME280;41826;53.246;-6.670;2022-09-23T07:01:01;100999.56;;;8.57;100.00
55916;BME280;41826;53.246;-6.670;2022-09-23T07:03:28;100989.75;;;8.70;100.00
55916;BME280;41826;53.246;-6.670;2022-09-23T07:05:54;100990.03;;;8.88;100.00
55916;BME280;41826;53.246;-6.670;2022-09-23T07:08:20;100995.81;;;9.03;100.00
55916;BME280;41826;53.246;-6.670;2022-09-23T07:10:50;100991.28;;;9.05;100.00
55916;BME280;41826;53.246;-6.670;2022-09-23T07:13:16;100992.56;;;9.10;100.00
55916;BME280;41826;53.246;-6.670;2022-09-23T07:15:41;100993.38;;;9.11;100.00
55916;BME280;41826;53.246;-6.670;2022-09-23T07:18:12;100993.16;;;9.14;100.00
55916;BME280;41826;53.246;-6.670;2022-09-23T07:20:38;100992.97;;;9.27;100.00
55916;BME280;41826;53.246;-6.670;2022-09-23T07:23:03;100992.97;;;9.27;100.00
55916;BME280;41826;53.246;-6.670;2022-09-23T07:25:28;100989.63;;;9.25;100.00
55916;BME280;41826;53.246;-6.670;2022-09-23T07:27:55;100991.28;;;9.26;100.00
55916;BME280;41826;53.246;-6.670;2022-09-23T07:30:20;100991.72;;;9.31;100.00
55916;BME280;41826;53.246;-6.670;2022-09-23T07:32:45;100989.44;;;9.38;100.00
55916;BME280;41826;53.246;-6.670;2022-09-23T07:35:11;101000.75;;;9.38;100.00
55916;BME280;41826;53.246;-6.670;2022-09-23T07:37:36;101004.06;;;9.40;100.00
55916;BME280;41826;53.246;-6.670;2022-09-23T07:40:02;101004.19;;;9.39;100.00
55916;BME280;41826;53.246;-6.670;2022-09-23T07:42:28;101002.84;;;9.44;100.00
55916;BME280;41826;53.246;-6.670;2022-09-23T07:44:53;101006.13;;;9.58;100.00
55916;BME280;41826;53.246;-6.670;2022-09-23T07:47:19;100999.31;;;9.76;100.00
55916;BME280;41826;53.246;-6.670;2022-09-23T07:49:44;101006.47;;;9.74;100.00
55916;BME280;41826;53.246;-6.670;2022-09-23T07:52:10;101012.75;;;9.83;100.00
55916;BME280;41826;53.246;-6.670;2022-09-23T07:54:35;101006.53;;;9.84;100.00
55916;BME280;41826;53.246;-6.670;2022-09-23T07:57:01;101013.69;;;9.82;100.00
55916;BME280;41826;53.246;-6.670;2022-09-23T07:59:26;101009.84;;;9.86;100.00
55916;BME280;41826;53.246;-6.670;2022-09-23T08:01:52;101020.81;;;10.01;100.00
55916;BME280;41826;53.246;-6.670;2022-09-23T08:04:24;101010.91;;;10.14;100.00
55916;BME280;41826;53.246;-6.670;2022-09-23T08:06:57;101002.88;;;10.36;100.00
55916;BME280;41826;53.246;-6.670;2022-09-23T08:09:25;101002.63;;;10.49;100.00
55916;BME280;41826;53.246;-6.670;2022-09-23T08:11:51;101005.97;;;10.61;100.00
55916;BME280;41826;53.246;-6.670;2022-09-23T08:14:17;101003.63;;;10.68;100.00
55916;BME280;41826;53.246;-6.670;2022-09-23T08:16:44;101000.59;;;10.72;100.00
55916;BME280;41826;53.246;-6.670;2022-09-23T08:19:10;101002.25;;;10.83;100.00
55916;BME280;41826;53.246;-6.670;2022-09-23T08:21:37;100994.66;;;10.90;100.00
55916;BME280;41826;53.246;-6.670;2022-09-23T08:24:04;100999.22;;;10.97;100.00
55916;BME280;41826;53.246;-6.670;2022-09-23T08:26:30;101001.28;;;10.94;100.00
55916;BME280;41826;53.246;-6.670;2022-09-23T08:28:58;101002.13;;;11.04;100.00
55916;BME280;41826;53.246;-6.670;2022-09-23T08:31:24;101003.19;;;11.21;100.00
55916;BME280;41826;53.246;-6.670;2022-09-23T08:33:54;101009.56;;;11.38;100.00
55916;BME280;41826;53.246;-6.670;2022-09-23T08:36:20;101016.16;;;11.42;100.00
55916;BME280;41826;53.246;-6.670;2022-09-23T08:38:45;101014.94;;;11.46;100.00
55916;BME280;41826;53.246;-6.670;2022-09-23T08:44:02;101010.91;;;11.52;100.00
55916;BME280;41826;53.246;-6.670;2022-09-23T08:46:38;101013.94;;;11.57;100.00
55916;BME280;41826;53.246;-6.670;2022-09-23T08:49:07;101018.34;;;11.66;100.00
55916;BME280;41826;53.246;-6.670;2022-09-23T08:51:46;101013.19;;;11.74;100.00
55916;BME280;41826;53.246;-6.670;2022-09-23T08:54:13;101012.06;;;11.77;100.00
55916;BME280;41826;53.246;-6.670;2022-09-23T08:56:43;101022.03;;;11.83;100.00
55916;BME280;41826;53.246;-6.670;2022-09-23T08:59:24;101012.47;;;11.82;100.00
55916;BME280;41826;53.246;-6.670;2022-09-23T09:01:57;101025.09;;;11.88;100.00
55916;BME280;41826;53.246;-6.670;2022-09-23T09:04:39;101019.41;;;11.92;100.00
55916;BME280;41826;53.246;-6.670;2022-09-23T09:12:10;101028.63;;;12.34;100.00
55916;BME280;41826;53.246;-6.670;2022-09-23T09:17:13;101019.63;;;12.36;100.00
55916;BME280;41826;53.246;-6.670;2022-09-23T09:19:51;101027.81;;;12.33;100.00
55916;BME280;41826;53.246;-6.670;2022-09-23T09:27:58;101015.75;;;12.58;100.00
55916;BME280;41826;53.246;-6.670;2022-09-23T09:30:24;101016.41;;;12.61;100.00
55916;BME280;41826;53.246;-6.670;2022-09-23T09:33:01;101018.47;;;12.67;100.00
55916;BME280;41826;53.246;-6.670;2022-09-23T09:35:53;101014.47;;;12.80;100.00
55916;BME280;41826;53.246;-6.670;2022-09-23T09:38:21;101014.94;;;12.94;100.00
55916;BME280;41826;53.246;-6.670;2022-09-23T09:40:47;101013.56;;;13.08;100.00
55916;BME280;41826;53.246;-6.670;2022-09-23T09:43:17;101017.41;;;13.31;100.00
55916;BME280;41826;53.246;-6.670;2022-09-23T09:46:13;101020.47;;;13.44;100.00
55916;BME280;41826;53.246;-6.670;2022-09-23T09:48:57;101015.84;;;13.47;100.00
55916;BME280;41826;53.246;-6.670;2022-09-23T09:51:26;101015.19;;;13.71;100.00
55916;BME280;41826;53.246;-6.670;2022-09-23T09:53:53;101011.81;;;13.86;100.00
55916;BME280;41826;53.246;-6.670;2022-09-23T09:56:33;101005.97;;;14.01;100.00
55916;BME280;41826;53.246;-6.670;2022-09-23T09:59:08;101007.63;;;14.10;100.00
55916;BME280;41826;53.246;-6.670;2022-09-23T10:01:35;101004.72;;;14.21;100.00
55916;BME280;41826;53.246;-6.670;2022-09-23T10:04:18;100996.34;;;14.42;100.00
55916;BME280;41826;53.246;-6.670;2022-09-23T10:09:32;101000.88;;;14.58;100.00
55916;BME280;41826;53.246;-6.670;2022-09-23T10:12:19;101003.09;;;14.28;100.00
55916;BME280;41826;53.246;-6.670;2022-09-23T10:14:45;101005.28;;;14.49;100.00
55916;BME280;41826;53.246;-6.670;2022-09-23T10:17:19;101004.47;;;14.49;100.00
55916;BME280;41826;53.246;-6.670;2022-09-23T10:19:47;100997.28;;;14.67;100.00
55916;BME280;41826;53.246;-6.670;2022-09-23T10:22:20;101003.06;;;14.79;100.00
55916;BME280;41826;53.246;-6.670;2022-09-23T10:24:48;101000.44;;;14.87;100.00
55916;BME280;41826;53.246;-6.670;2022-09-23T10:27:14;100989.19;;;14.93;100.00
55916;BME280;41826;53.246;-6.670;2022-09-23T10:29:48;100992.84;;;14.92;100.00
55916;BME280;41826;53.246;-6.670;2022-09-23T10:32:36;101000.13;;;15.07;100.00
55916;BME280;41826;53.246;-6.670;2022-09-23T10:37:46;100990.66;;;15.29;100.00
55916;BME280;41826;53.246;-6.670;2022-09-23T10:46:20;100988.16;;;15.44;100.00
55916;BME280;41826;53.246;-6.670;2022-09-23T11:00:21;100981.34;;;15.74;100.00
55916;BME280;41826;53.246;-6.670;2022-09-23T11:03:18;100977.38;;;15.78;100.00
55916;BME280;41826;53.246;-6.670;2022-09-23T11:11:30;100978.97;;;15.95;100.00
55916;BME280;41826;53.246;-6.670;2022-09-23T11:14:30;100981.94;;;16.00;100.00
55916;BME280;41826;53.246;-6.670;2022-09-23T11:18:13;100978.75;;;16.05;100.00
55916;BME280;41826;53.246;-6.670;2022-09-23T11:30:52;100968.00;;;15.43;100.00
55916;BME280;41826;53.246;-6.670;2022-09-23T11:36:45;100972.88;;;15.87;100.00
55916;BME280;41826;53.246;-6.670;2022-09-23T11:39:31;100976.94;;;16.06;100.00
55916;BME280;41826;53.246;-6.670;2022-09-23T11:42:00;100972.97;;;16.01;100.00
55916;BME280;41826;53.246;-6.670;2022-09-23T11:44:39;100973.53;;;16.20;100.00
55916;BME280;41826;53.246;-6.670;2022-09-23T11:47:14;100959.44;;;16.51;100.00
55916;BME280;41826;53.246;-6.670;2022-09-23T11:49:49;100958.81;;;16.49;100.00
55916;BME280;41826;53.246;-6.670;2022-09-23T11:52:37;100956.13;;;16.57;100.00
55916;BME280;41826;53.246;-6.670;2022-09-23T11:55:06;100957.28;;;16.54;100.00
55916;BME280;41826;53.246;-6.670;2022-09-23T11:57:52;100951.03;;;16.24;100.00
55916;BME280;41826;53.246;-6.670;2022-09-23T12:00:21;100960.19;;;16.13;100.00
55916;BME280;41826;53.246;-6.670;2022-09-23T12:05:47;100960.53;;;16.41;100.00
55916;BME280;41826;53.246;-6.670;2022-09-23T12:24:12;100947.25;;;16.18;100.00
55916;BME280;41826;53.246;-6.670;2022-09-23T12:26:48;100943.50;;;16.59;100.00
55916;BME280;41826;53.246;-6.670;2022-09-23T12:29:16;100937.09;;;16.76;100.00
55916;BME280;41826;53.246;-6.670;2022-09-23T12:31:42;100936.81;;;16.94;100.00
55916;BME280;41826;53.246;-6.670;2022-09-23T12:34:41;100934.78;;;16.73;100.00
55916;BME280;41826;53.246;-6.670;2022-09-23T12:37:22;100939.16;;;16.89;100.00
55916;BME280;41826;53.246;-6.670;2022-09-23T12:39:48;100937.75;;;16.78;100.00
55916;BME280;41826;53.246;-6.670;2022-09-23T12:42:16;100934.91;;;17.03;100.00
55916;BME280;41826;53.246;-6.670;2022-09-23T12:44:45;100941.38;;;16.00;100.00
55916;BME280;41826;53.246;-6.670;2022-09-23T12:49:50;100942.16;;;16.63;100.00
55916;BME280;41826;53.246;-6.670;2022-09-23T12:54:49;100937.34;;;16.35;100.00
55916;BME280;41826;53.246;-6.670;2022-09-23T13:00:46;100940.22;;;16.80;100.00
55916;BME280;41826;53.246;-6.670;2022-09-23T13:06:01;100942.34;;;16.84;100.00
55916;BME280;41826;53.246;-6.670;2022-09-23T13:08:51;100936.31;;;16.44;100.00
55916;BME280;41826;53.246;-6.670;2022-09-23T13:11:28;100933.09;;;16.80;100.00
55916;BME280;41826;53.246;-6.670;2022-09-23T13:13:55;100935.06;;;16.86;100.00
55916;BME280;41826;53.246;-6.670;2022-09-23T13:26:52;100921.59;;;17.41;100.00
55916;BME280;41826;53.246;-6.670;2022-09-23T13:29:30;100921.03;;;17.30;100.00
55916;BME280;41826;53.246;-6.670;2022-09-23T13:32:00;100920.00;;;17.31;100.00
55916;BME280;41826;53.246;-6.670;2022-09-23T13:34:30;100921.31;;;17.36;100.00
55916;BME280;41826;53.246;-6.670;2022-09-23T13:36:56;100923.03;;;17.28;100.00
55916;BME280;41826;53.246;-6.670;2022-09-23T13:39:25;100925.88;;;17.27;100.00
55916;BME280;41826;53.246;-6.670;2022-09-23T13:41:54;100918.25;;;17.24;100.00
55916;BME280;41826;53.246;-6.670;2022-09-23T13:44:23;100926.44;;;16.84;100.00
55916;BME280;41826;53.246;-6.670;2022-09-23T13:46:54;100926.31;;;17.16;100.00
55916;BME280;41826;53.246;-6.670;2022-09-23T13:49:34;100924.13;;;17.19;100.00
55916;BME280;41826;53.246;-6.670;2022-09-23T13:52:01;100922.50;;;17.33;100.00
55916;BME280;41826;53.246;-6.670;2022-09-23T13:56:58;100930.19;;;17.43;100.00
55916;BME280;41826;53.246;-6.670;2022-09-23T14:02:09;100918.44;;;17.52;100.00
55916;BME280;41826;53.246;-6.670;2022-09-23T14:04:34;100903.38;;;17.52;100.00
55916;BME280;41826;53.246;-6.670;2022-09-23T14:07:00;100909.13;;;17.56;100.00
55916;BME280;41826;53.246;-6.670;2022-09-23T14:09:27;100905.44;;;17.57;100.00
55916;BME280;41826;53.246;-6.670;2022-09-23T14:11:54;100910.88;;;17.49;100.00
55916;BME280;41826;53.246;-6.670;2022-09-23T14:14:21;100903.81;;;17.56;100.00
55916;BME280;41826;53.246;-6.670;2022-09-23T14:16:48;100905.28;;;17.59;100.00
55916;BME280;41826;53.246;-6.670;2022-09-23T14:19:19;100894.84;;;17.57;100.00
55916;BME280;41826;53.246;-6.670;2022-09-23T14:21:50;100894.03;;;17.42;100.00
55916;BME280;41826;53.246;-6.670;2022-09-23T14:24:32;100893.19;;;17.56;100.00
55916;BME280;41826;53.246;-6.670;2022-09-23T14:27:07;100896.88;;;17.55;100.00
55916;BME280;41826;53.246;-6.670;2022-09-23T14:29:39;100885.72;;;17.45;100.00
55916;BME280;41826;53.246;-6.670;2022-09-23T14:32:12;100899.53;;;17.55;100.00
55916;BME280;41826;53.246;-6.670;2022-09-23T14:34:51;100904.13;;;16.94;100.00
55916;BME280;41826;53.246;-6.670;2022-09-23T14:40:07;100925.13;;;16.57;100.00
55916;BME280;41826;53.246;-6.670;2022-09-23T14:42:39;100918.84;;;16.81;100.00
55916;BME280;41826;53.246;-6.670;2022-09-23T14:45:11;100917.34;;;16.33;100.00
55916;BME280;41826;53.246;-6.670;2022-09-23T14:47:42;100924.53;;;16.70;100.00
55916;BME280;41826;53.246;-6.670;2022-09-23T14:50:21;100921.13;;;16.84;100.00
55916;BME280;41826;53.246;-6.670;2022-09-23T15:03:46;100930.16;;;17.13;100.00
55916;BME280;41826;53.246;-6.670;2022-09-23T15:06:11;100932.44;;;16.78;100.00
55916;BME280;41826;53.246;-6.670;2022-09-23T15:08:37;100938.16;;;16.44;100.00
55916;BME280;41826;53.246;-6.670;2022-09-23T15:11:03;100938.06;;;16.29;100.00
55916;BME280;41826;53.246;-6.670;2022-09-23T15:13:31;100930.38;;;16.42;100.00
55916;BME280;41826;53.246;-6.670;2022-09-23T15:15:58;100932.97;;;15.24;100.00
55916;BME280;41826;53.246;-6.670;2022-09-23T15:18:37;100920.50;;;15.57;100.00
55916;BME280;41826;53.246;-6.670;2022-09-23T15:21:17;100934.94;;;15.94;100.00
55916;BME280;41826;53.246;-6.670;2022-09-23T15:23:46;100926.31;;;16.32;100.00
55916;BME280;41826;53.246;-6.670;2022-09-23T15:26:20;100924.53;;;16.47;100.00
55916;BME280;41826;53.246;-6.670;2022-09-23T15:28:46;100929.91;;;16.62;100.00